sensor_id;sensor_type;location;lat;lon;timestamp;pressure;altitude;pressure_sealevel;temperature;humidity
70909;BME280;58554;52.006;5.926;2022-10-15T00:00:43;99912.50;;;15.29;69.19
70909;BME280;58554;52.006;5.926;2022-10-15T00:03:09;99906.47;;;15.27;69.01
70909;BME280;58554;52.006;5.926;2022-10-15T00:05:39;99911.09;;;15.25;68.91
70909;BME280;58554;52.006;5.926;2022-10-15T00:08:09;99909.53;;;15.23;68.73
70909;BME280;58554;52.006;5.926;2022-10-15T00:10:37;99918.78;;;15.18;68.71
70909;BME280;58554;52.006;5.926;2022-10-15T00:13:04;99911.91;;;15.16;68.62
70909;BME280;58554;52.006;5.926;2022-10-15T00:15:31;99912.22;;;15.13;68.88
70909;BME280;58554;52.006;5.926;2022-10-15T00:17:58;99916.13;;;15.09;68.72
70909;BME280;58554;52.006;5.926;2022-10-15T00:20:24;99915.56;;;15.05;68.72
70909;BME280;58554;52.006;5.926;2022-10-15T00:22:53;99909.66;;;15.02;68.43
70909;BME280;58554;52.006;5.926;2022-10-15T00:25:19;99910.91;;;14.97;68.54
70909;BME280;58554;52.006;5.926;2022-10-15T00:27:46;99911.19;;;14.94;68.57
70909;BME280;58554;52.006;5.926;2022-10-15T00:30:12;99911.44;;;14.91;68.56
70909;BME280;58554;52.006;5.926;2022-10-15T00:32:39;99909.91;;;14.89;68.72
70909;BME280;58554;52.006;5.926;2022-10-15T00:35:06;99913.69;;;14.86;68.60
70909;BME280;58554;52.006;5.926;2022-10-15T00:37:33;99903.31;;;14.83;68.59
70909;BME280;58554;52.006;5.926;2022-10-15T00:40:03;99909.63;;;14.82;68.55
70909;BME280;58554;52.006;5.926;2022-10-15T00:42:31;99916.91;;;14.80;68.66
70909;BME280;58554;52.006;5.926;2022-10-15T00:44:58;99910.03;;;14.77;68.41
70909;BME280;58554;52.006;5.926;2022-10-15T00:47:29;99904.00;;;14.75;68.42
70909;BME280;58554;52.006;5.926;2022-10-15T00:50:04;99910.44;;;14.73;68.29
70909;BME280;58554;52.006;5.926;2022-10-15T00:52:38;99905.34;;;14.70;68.33
70909;BME280;58554;52.006;5.926;2022-10-15T00:55:18;99909.97;;;14.68;68.14
70909;BME280;58554;52.006;5.926;2022-10-15T00:57:51;99908.44;;;14.65;68.18
70909;BME280;58554;52.006;5.926;2022-10-15T01:00:19;99899.75;;;14.63;67.95
70909;BME280;58554;52.006;5.926;2022-10-15T01:02:45;99895.38;;;14.62;68.03
70909;BME280;58554;52.006;5.926;2022-10-15T01:05:14;99902.81;;;14.58;67.89
70909;BME280;58554;52.006;5.926;2022-10-15T01:07:42;99898.56;;;14.56;68.05
70909;BME280;58554;52.006;5.926;2022-10-15T01:10:10;99898.72;;;14.54;68.20
70909;BME280;58554;52.006;5.926;2022-10-15T01:13:06;99892.97;;;14.49;68.22
70909;BME280;58554;52.006;5.926;2022-10-15T01:15:44;99894.91;;;14.47;68.49
70909;BME280;58554;52.006;5.926;2022-10-15T01:18:21;99900.09;;;14.49;68.48
70909;BME280;58554;52.006;5.926;2022-10-15T01:20:57;99900.81;;;14.51;68.43
70909;BME280;58554;52.006;5.926;2022-10-15T01:24:04;99893.66;;;14.51;68.48
70909;BME280;58554;52.006;5.926;2022-10-15T01:27:24;99892.41;;;14.55;68.53
70909;BME280;58554;52.006;5.926;2022-10-15T01:30:21;99891.47;;;14.56;68.72
70909;BME280;58554;52.006;5.926;2022-10-15T01:36:04;99884.84;;;14.51;68.96
70909;BME280;58554;52.006;5.926;2022-10-15T01:38:48;99878.53;;;14.52;69.20
70909;BME280;58554;52.006;5.926;2022-10-15T01:41:27;99878.41;;;14.53;69.41
70909;BME280;58554;52.006;5.926;2022-10-15T01:44:03;99880.81;;;14.56;69.36
70909;BME280;58554;52.006;5.926;2022-10-15T01:46:40;99879.56;;;14.61;69.35
70909;BME280;58554;52.006;5.926;2022-10-15T01:49:14;99887.13;;;14.65;69.26
70909;BME280;58554;52.006;5.926;2022-10-15T01:51:42;99883.66;;;14.65;69.18
70909;BME280;58554;52.006;5.926;2022-10-15T01:54:13;99883.34;;;14.68;69.24
70909;BME280;58554;52.006;5.926;2022-10-15T01:56:43;99875.94;;;14.71;69.35
70909;BME280;58554;52.006;5.926;2022-10-15T01:59:13;99871.91;;;14.77;69.29
70909;BME280;58554;52.006;5.926;2022-10-15T02:01:45;99875.97;;;14.81;69.12
70909;BME280;58554;52.006;5.926;2022-10-15T02:04:19;99870.13;;;14.87;69.15
70909;BME280;58554;52.006;5.926;2022-10-15T02:06:51;99856.53;;;14.90;69.20
70909;BME280;58554;52.006;5.926;2022-10-15T02:09:31;99858.91;;;14.93;69.02
70909;BME280;58554;52.006;5.926;2022-10-15T02:12:11;99856.97;;;14.95;69.02
70909;BME280;58554;52.006;5.926;2022-10-15T02:14:59;99857.66;;;14.97;69.11
70909;BME280;58554;52.006;5.926;2022-10-15T02:17:36;99867.22;;;15.00;69.11
70909;BME280;58554;52.006;5.926;2022-10-15T02:20:11;99867.91;;;15.02;69.24
70909;BME280;58554;52.006;5.926;2022-10-15T02:22:46;99861.47;;;15.05;69.10
70909;BME280;58554;52.006;5.926;2022-10-15T02:25:22;99839.88;;;15.08;69.03
70909;BME280;58554;52.006;5.926;2022-10-15T02:27:51;99852.22;;;15.09;69.03
70909;BME280;58554;52.006;5.926;2022-10-15T02:30:21;99838.91;;;15.09;68.96
70909;BME280;58554;52.006;5.926;2022-10-15T02:32:54;99845.78;;;15.11;68.75
70909;BME280;58554;52.006;5.926;2022-10-15T02:35:25;99841.28;;;15.12;68.60
70909;BME280;58554;52.006;5.926;2022-10-15T02:37:55;99847.59;;;15.11;68.67
70909;BME280;58554;52.006;5.926;2022-10-15T02:40:28;99841.56;;;15.09;68.65
70909;BME280;58554;52.006;5.926;2022-10-15T02:42:59;99839.03;;;15.07;68.58
70909;BME280;58554;52.006;5.926;2022-10-15T02:45:28;99843.53;;;15.07;68.40
70909;BME280;58554;52.006;5.926;2022-10-15T02:47:57;99835.81;;;15.04;68.44
70909;BME280;58554;52.006;5.926;2022-10-15T02:50:23;99834.28;;;15.01;68.38
70909;BME280;58554;52.006;5.926;2022-10-15T02:52:50;99829.25;;;14.98;68.10
70909;BME280;58554;52.006;5.926;2022-10-15T02:55:17;99838.31;;;14.95;68.30
70909;BME280;58554;52.006;5.926;2022-10-15T02:57:44;99833.28;;;14.92;68.47
70909;BME280;58554;52.006;5.926;2022-10-15T03:00:11;99830.75;;;14.91;68.41
70909;BME280;58554;52.006;5.926;2022-10-15T03:02:39;99816.75;;;14.89;68.58
70909;BME280;58554;52.006;5.926;2022-10-15T03:05:08;99819.53;;;14.87;68.47
70909;BME280;58554;52.006;5.926;2022-10-15T03:07:34;99819.84;;;14.84;68.53
70909;BME280;58554;52.006;5.926;2022-10-15T03:10:01;99812.09;;;14.81;68.58
70909;BME280;58554;52.006;5.926;2022-10-15T03:12:28;99809.88;;;14.76;68.67
70909;BME280;58554;52.006;5.926;2022-10-15T03:14:55;99806.75;;;14.71;68.77
70909;BME280;58554;52.006;5.926;2022-10-15T03:17:21;99799.03;;;14.68;68.71
70909;BME280;58554;52.006;5.926;2022-10-15T03:19:47;99797.38;;;14.67;68.73
70909;BME280;58554;52.006;5.926;2022-10-15T03:22:16;99804.66;;;14.65;68.76
70909;BME280;58554;52.006;5.926;2022-10-15T03:24:43;99801.28;;;14.63;68.74
70909;BME280;58554;52.006;5.926;2022-10-15T03:27:09;99797.78;;;14.63;68.74
70909;BME280;58554;52.006;5.926;2022-10-15T03:29:36;99801.41;;;14.62;68.77
70909;BME280;58554;52.006;5.926;2022-10-15T03:32:03;99800.47;;;14.63;68.79
70909;BME280;58554;52.006;5.926;2022-10-15T03:34:29;99803.13;;;14.63;68.83
70909;BME280;58554;52.006;5.926;2022-10-15T03:36:56;99800.47;;;14.63;68.83
70909;BME280;58554;52.006;5.926;2022-10-15T03:39:25;99793.44;;;14.62;68.79
70909;BME280;58554;52.006;5.926;2022-10-15T03:41:52;99790.66;;;14.63;68.79
70909;BME280;58554;52.006;5.926;2022-10-15T03:44:19;99782.53;;;14.65;68.81
70909;BME280;58554;52.006;5.926;2022-10-15T03:46:45;99776.22;;;14.66;68.81
70909;BME280;58554;52.006;5.926;2022-10-15T03:49:12;99778.75;;;14.67;68.97
70909;BME280;58554;52.006;5.926;2022-10-15T03:51:38;99772.44;;;14.68;68.94
70909;BME280;58554;52.006;5.926;2022-10-15T03:54:05;99771.47;;;14.69;69.05
70909;BME280;58554;52.006;5.926;2022-10-15T03:56:34;99773.13;;;14.70;68.86
70909;BME280;58554;52.006;5.926;2022-10-15T03:59:00;99782.72;;;14.73;68.99
70909;BME280;58554;52.006;5.926;2022-10-15T04:01:27;99786.09;;;14.75;68.98
70909;BME280;58554;52.006;5.926;2022-10-15T04:03:53;99780.75;;;14.75;68.99
70909;BME280;58554;52.006;5.926;2022-10-15T04:06:20;99785.78;;;14.78;68.84
70909;BME280;58554;52.006;5.926;2022-10-15T04:08:46;99791.94;;;14.78;69.00
70909;BME280;58554;52.006;5.926;2022-10-15T04:11:13;99783.00;;;14.80;69.08
70909;BME280;58554;52.006;5.926;2022-10-15T04:13:42;99779.63;;;14.77;69.11
70909;BME280;58554;52.006;5.926;2022-10-15T04:16:08;99784.97;;;14.77;69.08
70909;BME280;58554;52.006;5.926;2022-10-15T04:18:35;99791.41;;;14.75;69.19
70909;BME280;58554;52.006;5.926;2022-10-15T04:21:01;99794.06;;;14.75;69.15
70909;BME280;58554;52.006;5.926;2022-10-15T04:23:27;99801.19;;;14.74;69.06
70909;BME280;58554;52.006;5.926;2022-10-15T04:25:57;99800.22;;;14.75;69.15
70909;BME280;58554;52.006;5.926;2022-10-15T04:28:24;99795.88;;;14.74;69.26
70909;BME280;58554;52.006;5.926;2022-10-15T04:30:55;99802.06;;;14.75;69.19
70909;BME280;58554;52.006;5.926;2022-10-15T04:33:22;99793.06;;;14.76;69.29
70909;BME280;58554;52.006;5.926;2022-10-15T04:35:57;99804.72;;;14.75;69.29
70909;BME280;58554;52.006;5.926;2022-10-15T04:38:25;99806.25;;;14.77;69.33
70909;BME280;58554;52.006;5.926;2022-10-15T04:40:57;99806.25;;;14.77;69.20
70909;BME280;58554;52.006;5.926;2022-10-15T04:43:25;99798.25;;;14.77;69.16
70909;BME280;58554;52.006;5.926;2022-10-15T04:45:57;99802.59;;;14.78;69.21
70909;BME280;58554;52.006;5.926;2022-10-15T04:48:24;99807.22;;;14.76;69.14
70909;BME280;58554;52.006;5.926;2022-10-15T04:50:53;99800.22;;;14.75;69.46
70909;BME280;58554;52.006;5.926;2022-10-15T04:53:19;99803.72;;;14.76;69.41
70909;BME280;58554;52.006;5.926;2022-10-15T04:55:46;99796.56;;;14.76;69.47
70909;BME280;58554;52.006;5.926;2022-10-15T04:58:13;99793.91;;;14.76;69.41
70909;BME280;58554;52.006;5.926;2022-10-15T05:00:39;99784.25;;;14.75;69.37
70909;BME280;58554;52.006;5.926;2022-10-15T05:03:08;99784.09;;;14.77;69.40
70909;BME280;58554;52.006;5.926;2022-10-15T05:05:35;99797.41;;;14.77;69.58
70909;BME280;58554;52.006;5.926;2022-10-15T05:08:02;99791.94;;;14.78;69.58
70909;BME280;58554;52.006;5.926;2022-10-15T05:10:30;99789.03;;;14.82;69.54
70909;BME280;58554;52.006;5.926;2022-10-15T05:12:57;99792.78;;;14.79;69.61
70909;BME280;58554;52.006;5.926;2022-10-15T05:15:24;99798.41;;;14.76;69.65
70909;BME280;58554;52.006;5.926;2022-10-15T05:17:51;99789.72;;;14.74;69.71
70909;BME280;58554;52.006;5.926;2022-10-15T05:20:20;99793.06;;;14.76;69.86
70909;BME280;58554;52.006;5.926;2022-10-15T05:22:47;99793.78;;;14.78;69.93
70909;BME280;58554;52.006;5.926;2022-10-15T05:25:14;99790.97;;;14.80;69.92
70909;BME280;58554;52.006;5.926;2022-10-15T05:27:40;99790.81;;;14.81;69.97
70909;BME280;58554;52.006;5.926;2022-10-15T05:30:08;99795.03;;;14.84;69.95
70909;BME280;58554;52.006;5.926;2022-10-15T05:32:35;99793.09;;;14.86;70.08
70909;BME280;58554;52.006;5.926;2022-10-15T05:35:02;99798.41;;;14.86;70.09
70909;BME280;58554;52.006;5.926;2022-10-15T05:37:32;99800.38;;;14.84;70.16
70909;BME280;58554;52.006;5.926;2022-10-15T05:39:59;99799.66;;;14.82;70.20
70909;BME280;58554;52.006;5.926;2022-10-15T05:42:25;99801.47;;;14.81;70.32
70909;BME280;58554;52.006;5.926;2022-10-15T05:44:52;99801.34;;;14.83;70.20
70909;BME280;58554;52.006;5.926;2022-10-15T05:47:18;99799.50;;;14.83;70.42
70909;BME280;58554;52.006;5.926;2022-10-15T05:49:44;99804.00;;;14.83;70.32
70909;BME280;58554;52.006;5.926;2022-10-15T05:52:11;99800.38;;;14.84;70.41
70909;BME280;58554;52.006;5.926;2022-10-15T05:54:40;99808.06;;;14.87;70.44
70909;BME280;58554;52.006;5.926;2022-10-15T05:57:06;99811.41;;;14.89;70.44
70909;BME280;58554;52.006;5.926;2022-10-15T05:59:33;99818.44;;;14.90;70.28
70909;BME280;58554;52.006;5.926;2022-10-15T06:01:59;99823.91;;;14.88;70.51
70909;BME280;58554;52.006;5.926;2022-10-15T06:04:26;99816.88;;;14.87;70.32
70909;BME280;58554;52.006;5.926;2022-10-15T06:06:52;99810.03;;;14.85;70.42
70909;BME280;58554;52.006;5.926;2022-10-15T06:09:19;99817.44;;;14.81;70.47
70909;BME280;58554;52.006;5.926;2022-10-15T06:11:48;99816.31;;;14.74;70.40
70909;BME280;58554;52.006;5.926;2022-10-15T06:14:14;99813.59;;;14.64;70.44
70909;BME280;58554;52.006;5.926;2022-10-15T06:16:41;99807.59;;;14.52;70.60
70909;BME280;58554;52.006;5.926;2022-10-15T06:19:08;99810.34;;;14.41;70.84
70909;BME280;58554;52.006;5.926;2022-10-15T06:21:34;99807.81;;;14.30;70.91
70909;BME280;58554;52.006;5.926;2022-10-15T06:24:01;99808.88;;;14.17;71.24
70909;BME280;58554;52.006;5.926;2022-10-15T06:26:27;99807.28;;;14.05;71.61
70909;BME280;58554;52.006;5.926;2022-10-15T06:28:56;99811.13;;;13.91;71.75
70909;BME280;58554;52.006;5.926;2022-10-15T06:31:22;99806.88;;;13.79;72.09
70909;BME280;58554;52.006;5.926;2022-10-15T06:33:49;99805.16;;;13.68;72.31
70909;BME280;58554;52.006;5.926;2022-10-15T06:36:15;99800.75;;;13.57;72.56
70909;BME280;58554;52.006;5.926;2022-10-15T06:38:42;99809.34;;;13.50;72.86
70909;BME280;58554;52.006;5.926;2022-10-15T06:41:09;99809.31;;;13.40;73.05
70909;BME280;58554;52.006;5.926;2022-10-15T06:43:35;99810.78;;;13.33;73.36
70909;BME280;58554;52.006;5.926;2022-10-15T06:46:05;99812.41;;;13.24;73.63
70909;BME280;58554;52.006;5.926;2022-10-15T06:48:31;99816.41;;;13.18;73.88
70909;BME280;58554;52.006;5.926;2022-10-15T06:50:58;99816.06;;;13.12;74.17
70909;BME280;58554;52.006;5.926;2022-10-15T06:53:26;99809.34;;;13.08;74.42
70909;BME280;58554;52.006;5.926;2022-10-15T06:55:55;99810.72;;;13.02;74.54
70909;BME280;58554;52.006;5.926;2022-10-15T06:58:22;99815.41;;;12.99;74.69
70909;BME280;58554;52.006;5.926;2022-10-15T07:00:49;99819.28;;;12.94;74.93
70909;BME280;58554;52.006;5.926;2022-10-15T07:03:18;99815.09;;;12.92;75.03
70909;BME280;58554;52.006;5.926;2022-10-15T07:05:44;99810.84;;;12.89;75.29
70909;BME280;58554;52.006;5.926;2022-10-15T07:08:11;99811.84;;;12.88;75.29
70909;BME280;58554;52.006;5.926;2022-10-15T07:10:37;99816.31;;;12.88;75.43
70909;BME280;58554;52.006;5.926;2022-10-15T07:13:03;99810.28;;;12.86;75.47
70909;BME280;58554;52.006;5.926;2022-10-15T07:15:30;99809.41;;;12.85;75.69
70909;BME280;58554;52.006;5.926;2022-10-15T07:17:56;99812.34;;;12.82;75.79
70909;BME280;58554;52.006;5.926;2022-10-15T07:20:26;99811.63;;;12.80;75.85
70909;BME280;58554;52.006;5.926;2022-10-15T07:22:55;99813.28;;;12.81;76.01
70909;BME280;58554;52.006;5.926;2022-10-15T07:25:22;99814.28;;;12.80;76.19
70909;BME280;58554;52.006;5.926;2022-10-15T07:27:48;99827.53;;;12.80;76.19
70909;BME280;58554;52.006;5.926;2022-10-15T07:30:15;99830.91;;;12.82;76.29
70909;BME280;58554;52.006;5.926;2022-10-15T07:32:42;99831.63;;;12.84;76.49
70909;BME280;58554;52.006;5.926;2022-10-15T07:35:08;99822.84;;;12.84;76.52
70909;BME280;58554;52.006;5.926;2022-10-15T07:37:37;99820.75;;;12.87;76.60
70909;BME280;58554;52.006;5.926;2022-10-15T07:40:05;99816.31;;;12.88;76.75
70909;BME280;58554;52.006;5.926;2022-10-15T07:42:33;99811.84;;;12.88;76.75
70909;BME280;58554;52.006;5.926;2022-10-15T07:44:59;99816.16;;;12.89;76.79
70909;BME280;58554;52.006;5.926;2022-10-15T07:47:26;99812.56;;;12.90;76.92
70909;BME280;58554;52.006;5.926;2022-10-15T07:49:52;99808.91;;;12.91;76.87
70909;BME280;58554;52.006;5.926;2022-10-15T07:52:18;99817.75;;;12.92;77.02
70909;BME280;58554;52.006;5.926;2022-10-15T07:54:47;99811.44;;;12.93;77.07
70909;BME280;58554;52.006;5.926;2022-10-15T07:57:14;99813.16;;;12.94;77.08
70909;BME280;58554;52.006;5.926;2022-10-15T07:59:41;99817.59;;;12.93;77.31
70909;BME280;58554;52.006;5.926;2022-10-15T08:02:12;99814.94;;;12.93;77.06
70909;BME280;58554;52.006;5.926;2022-10-15T08:04:40;99813.97;;;12.94;77.44
70909;BME280;58554;52.006;5.926;2022-10-15T08:07:07;99811.34;;;12.94;77.38
70909;BME280;58554;52.006;5.926;2022-10-15T08:09:34;99813.97;;;12.94;77.53
70909;BME280;58554;52.006;5.926;2022-10-15T08:12:03;99819.19;;;12.96;77.70
70909;BME280;58554;52.006;5.926;2022-10-15T08:14:30;99820.59;;;13.00;77.71
70909;BME280;58554;52.006;5.926;2022-10-15T08:16:57;99813.09;;;13.05;77.84
70909;BME280;58554;52.006;5.926;2022-10-15T08:19:23;99820.66;;;13.10;77.94
70909;BME280;58554;52.006;5.926;2022-10-15T08:21:50;99822.09;;;13.14;78.15
70909;BME280;58554;52.006;5.926;2022-10-15T08:24:17;99821.47;;;13.22;77.94
70909;BME280;58554;52.006;5.926;2022-10-15T08:26:43;99808.38;;;13.30;77.89
70909;BME280;58554;52.006;5.926;2022-10-15T08:29:12;99807.75;;;13.37;77.85
70909;BME280;58554;52.006;5.926;2022-10-15T08:31:39;99803.31;;;13.48;77.78
70909;BME280;58554;52.006;5.926;2022-10-15T08:34:06;99793.16;;;13.53;77.76
70909;BME280;58554;52.006;5.926;2022-10-15T08:36:33;99796.16;;;13.60;77.67
70909;BME280;58554;52.006;5.926;2022-10-15T08:39:00;99791.75;;;13.70;77.71
70909;BME280;58554;52.006;5.926;2022-10-15T08:41:30;99791.94;;;13.78;77.53
70909;BME280;58554;52.006;5.926;2022-10-15T08:44:01;99783.31;;;13.86;77.44
70909;BME280;58554;52.006;5.926;2022-10-15T08:46:34;99775.63;;;13.92;77.37
70909;BME280;58554;52.006;5.926;2022-10-15T08:49:13;99767.13;;;13.98;77.63
70909;BME280;58554;52.006;5.926;2022-10-15T08:51:50;99765.75;;;14.04;77.59
70909;BME280;58554;52.006;5.926;2022-10-15T08:54:22;99772.31;;;14.10;77.46
70909;BME280;58554;52.006;5.926;2022-10-15T08:56:53;99768.41;;;14.14;77.34
70909;BME280;58554;52.006;5.926;2022-10-15T08:59:36;99776.69;;;14.21;77.22
70909;BME280;58554;52.006;5.926;2022-10-15T09:02:16;99777.72;;;14.29;77.23
70909;BME280;58554;52.006;5.926;2022-10-15T09:04:52;99767.25;;;14.37;77.17
70909;BME280;58554;52.006;5.926;2022-10-15T09:07:32;99762.19;;;14.44;76.85
70909;BME280;58554;52.006;5.926;2022-10-15T09:10:13;99765.56;;;14.46;76.64
70909;BME280;58554;52.006;5.926;2022-10-15T09:12:49;99763.03;;;14.45;76.48
70909;BME280;58554;52.006;5.926;2022-10-15T09:15:24;99753.53;;;14.42;76.36
70909;BME280;58554;52.006;5.926;2022-10-15T09:18:00;99754.66;;;14.40;76.43
70909;BME280;58554;52.006;5.926;2022-10-15T09:20:31;99752.09;;;14.38;76.60
70909;BME280;58554;52.006;5.926;2022-10-15T09:23:01;99750.16;;;14.40;76.77
70909;BME280;58554;52.006;5.926;2022-10-15T09:25:32;99745.53;;;14.42;76.80
70909;BME280;58554;52.006;5.926;2022-10-15T09:28:07;99743.41;;;14.46;76.73
70909;BME280;58554;52.006;5.926;2022-10-15T09:30:41;99745.69;;;14.50;76.77
70909;BME280;58554;52.006;5.926;2022-10-15T09:33:32;99739.25;;;14.53;76.85
70909;BME280;58554;52.006;5.926;2022-10-15T09:36:16;99740.78;;;14.55;76.68
70909;BME280;58554;52.006;5.926;2022-10-15T09:39:03;99732.53;;;14.58;76.64
70909;BME280;58554;52.006;5.926;2022-10-15T09:41:45;99735.91;;;14.61;76.52
70909;BME280;58554;52.006;5.926;2022-10-15T09:44:24;99732.81;;;14.65;76.62
70909;BME280;58554;52.006;5.926;2022-10-15T09:46:59;99724.19;;;14.73;76.49
70909;BME280;58554;52.006;5.926;2022-10-15T09:49:28;99715.75;;;14.77;76.41
70909;BME280;58554;52.006;5.926;2022-10-15T09:52:01;99718.13;;;14.81;76.22
70909;BME280;58554;52.006;5.926;2022-10-15T09:54:42;99715.19;;;14.84;76.19
70909;BME280;58554;52.006;5.926;2022-10-15T09:57:16;99719.97;;;14.90;76.20
70909;BME280;58554;52.006;5.926;2022-10-15T09:59:55;99719.53;;;14.94;76.22
70909;BME280;58554;52.006;5.926;2022-10-15T10:02:23;99719.22;;;14.97;76.11
70909;BME280;58554;52.006;5.926;2022-10-15T10:04:54;99723.44;;;15.00;76.07
70909;BME280;58554;52.006;5.926;2022-10-15T10:07:31;99728.06;;;14.98;76.03
70909;BME280;58554;52.006;5.926;2022-10-15T10:10:02;99718.53;;;14.95;76.05
70909;BME280;58554;52.006;5.926;2022-10-15T10:12:34;99717.00;;;14.93;75.98
70909;BME280;58554;52.006;5.926;2022-10-15T10:15:06;99701.31;;;14.90;76.33
70909;BME280;58554;52.006;5.926;2022-10-15T10:17:51;99695.00;;;14.91;76.65
70909;BME280;58554;52.006;5.926;2022-10-15T10:20:22;99690.25;;;14.94;76.75
70909;BME280;58554;52.006;5.926;2022-10-15T10:22:52;99694.00;;;15.02;76.76
70909;BME280;58554;52.006;5.926;2022-10-15T10:25:29;99698.75;;;15.08;76.76
70909;BME280;58554;52.006;5.926;2022-10-15T10:28:05;99697.94;;;15.07;76.47
70909;BME280;58554;52.006;5.926;2022-10-15T10:30:50;99700.59;;;15.07;76.72
70909;BME280;58554;52.006;5.926;2022-10-15T10:33:27;99702.69;;;15.04;76.73
70909;BME280;58554;52.006;5.926;2022-10-15T10:35:59;99692.91;;;15.04;76.78
70909;BME280;58554;52.006;5.926;2022-10-15T10:38:29;99702.69;;;15.04;76.95
70909;BME280;58554;52.006;5.926;2022-10-15T10:41:00;99696.41;;;15.05;76.99
70909;BME280;58554;52.006;5.926;2022-10-15T10:43:30;99691.34;;;15.02;77.02
70909;BME280;58554;52.006;5.926;2022-10-15T10:45:59;99692.47;;;14.99;77.14
70909;BME280;58554;52.006;5.926;2022-10-15T10:48:33;99689.41;;;14.94;77.20
70909;BME280;58554;52.006;5.926;2022-10-15T10:51:10;99673.72;;;14.91;77.49
70909;BME280;58554;52.006;5.926;2022-10-15T10:53:50;99677.63;;;14.87;77.57
70909;BME280;58554;52.006;5.926;2022-10-15T10:56:22;99684.34;;;14.81;77.77
70909;BME280;58554;52.006;5.926;2022-10-15T10:58:57;99679.34;;;14.78;77.67
70909;BME280;58554;52.006;5.926;2022-10-15T11:01:27;99681.31;;;14.76;77.68
70909;BME280;58554;52.006;5.926;2022-10-15T11:03:54;99682.28;;;14.75;77.96
70909;BME280;58554;52.006;5.926;2022-10-15T11:06:34;99685.09;;;14.73;78.06
70909;BME280;58554;52.006;5.926;2022-10-15T11:09:17;99678.94;;;14.73;78.25
70909;BME280;58554;52.006;5.926;2022-10-15T11:12:03;99669.25;;;14.72;78.28
70909;BME280;58554;52.006;5.926;2022-10-15T11:14:48;99672.19;;;14.69;78.52
70909;BME280;58554;52.006;5.926;2022-10-15T11:17:26;99677.50;;;14.69;78.46
70909;BME280;58554;52.006;5.926;2022-10-15T11:20:07;99678.59;;;14.66;78.55
70909;BME280;58554;52.006;5.926;2022-10-15T11:22:58;99665.72;;;14.62;78.69
70909;BME280;58554;52.006;5.926;2022-10-15T11:25:45;99665.03;;;14.59;78.90
70909;BME280;58554;52.006;5.926;2022-10-15T11:28:33;99665.03;;;14.59;78.92
70909;BME280;58554;52.006;5.926;2022-10-15T11:31:24;99646.28;;;14.61;78.95
70909;BME280;58554;52.006;5.926;2022-10-15T11:34:13;99650.75;;;14.61;79.10
70909;BME280;58554;52.006;5.926;2022-10-15T11:36:59;99659.72;;;14.59;79.20
70909;BME280;58554;52.006;5.926;2022-10-15T11:39:53;99653.56;;;14.59;79.44
70909;BME280;58554;52.006;5.926;2022-10-15T11:42:34;99650.75;;;14.61;79.52
70909;BME280;58554;52.006;5.926;2022-10-15T11:45:37;99640.81;;;14.63;79.49
70909;BME280;58554;52.006;5.926;2022-10-15T11:48:23;99651.47;;;14.63;79.58
70909;BME280;58554;52.006;5.926;2022-10-15T11:51:03;99650.47;;;14.64;79.57
70909;BME280;58554;52.006;5.926;2022-10-15T11:53:55;99644.00;;;14.66;79.73
70909;BME280;58554;52.006;5.926;2022-10-15T11:56:39;99630.44;;;14.69;79.68
70909;BME280;58554;52.006;5.926;2022-10-15T11:59:17;99640.00;;;14.72;79.79
70909;BME280;58554;52.006;5.926;2022-10-15T12:01:56;99636.19;;;14.74;79.99
70909;BME280;58554;52.006;5.926;2022-10-15T12:04:33;99641.38;;;14.76;80.05
70909;BME280;58554;52.006;5.926;2022-10-15T12:07:08;99634.22;;;14.76;80.12
70909;BME280;58554;52.006;5.926;2022-10-15T12:09:45;99635.06;;;14.77;80.23
70909;BME280;58554;52.006;5.926;2022-10-15T12:12:28;99633.25;;;14.77;80.23
70909;BME280;58554;52.006;5.926;2022-10-15T12:15:20;99634.78;;;14.80;80.26
70909;BME280;58554;52.006;5.926;2022-10-15T12:17:56;99624.97;;;14.81;80.36
70909;BME280;58554;52.006;5.926;2022-10-15T12:20:30;99626.81;;;14.80;80.45
70909;BME280;58554;52.006;5.926;2022-10-15T12:22:58;99632.28;;;14.78;80.62
70909;BME280;58554;52.006;5.926;2022-10-15T12:25:41;99627.50;;;14.82;80.86
70909;BME280;58554;52.006;5.926;2022-10-15T12:28:17;99623.84;;;14.83;80.92
70909;BME280;58554;52.006;5.926;2022-10-15T12:30:56;99623.72;;;14.85;80.88
70909;BME280;58554;52.006;5.926;2022-10-15T12:33:33;99624.28;;;14.88;80.87
70909;BME280;58554;52.006;5.926;2022-10-15T12:36:04;99619.34;;;14.93;81.05
70909;BME280;58554;52.006;5.926;2022-10-15T12:38:36;99611.34;;;14.93;81.18
70909;BME280;58554;52.006;5.926;2022-10-15T12:41:07;99610.25;;;14.96;81.32
70909;BME280;58554;52.006;5.926;2022-10-15T12:43:40;99612.75;;;14.97;81.31
70909;BME280;58554;52.006;5.926;2022-10-15T12:46:10;99611.47;;;15.02;81.41
70909;BME280;58554;52.006;5.926;2022-10-15T12:48:41;99609.50;;;15.04;81.34
70909;BME280;58554;52.006;5.926;2022-10-15T12:51:36;99603.59;;;15.10;81.46
70909;BME280;58554;52.006;5.926;2022-10-15T12:54:34;99610.03;;;15.17;81.62
70909;BME280;58554;52.006;5.926;2022-10-15T13:00:43;99614.34;;;15.28;81.70
70909;BME280;58554;52.006;5.926;2022-10-15T13:03:16;99616.84;;;15.29;81.65
70909;BME280;58554;52.006;5.926;2022-10-15T13:06:22;99615.28;;;15.36;81.79
70909;BME280;58554;52.006;5.926;2022-10-15T13:09:03;99615.66;;;15.42;81.72
70909;BME280;58554;52.006;5.926;2022-10-15T13:11:46;99617.91;;;15.46;81.61
70909;BME280;58554;52.006;5.926;2022-10-15T13:14:26;99615.75;;;15.50;81.48
70909;BME280;58554;52.006;5.926;2022-10-15T13:17:01;99617.31;;;15.52;81.49
70909;BME280;58554;52.006;5.926;2022-10-15T13:19:34;99612.50;;;15.56;81.96
70909;BME280;58554;52.006;5.926;2022-10-15T13:22:06;99612.59;;;15.64;81.72
70909;BME280;58554;52.006;5.926;2022-10-15T13:24:46;99613.00;;;15.69;81.71
70909;BME280;58554;52.006;5.926;2022-10-15T13:27:14;99616.22;;;15.73;81.68
70909;BME280;58554;52.006;5.926;2022-10-15T13:29:58;99619.41;;;15.76;81.72
70909;BME280;58554;52.006;5.926;2022-10-15T13:32:30;99618.97;;;15.81;81.87